Time;durP1;ratioP1;P1;durP2;ratioP2;P2;SDS_P1;SDS_P2;PMS_P1;PMS_P2;Temp;Humidity;BMP_temperature;BMP_pressure;BME280_temperature;BME280_humidity;BME280_pressure;Samples;Min_cycle;Max_cycle;Signal;HPM_P1;HPM_P2
2023/10/30 00:00:19;;;;;;;;;;;10.80;99.90;;;;;;6090342;23;19918;-79
2023/10/30 00:02:45;;;;;;;;;;;10.80;99.90;;;;;;6091221;23;20399;-78
2023/10/30 00:05:11;;;;;;;;;;;10.80;99.90;;;;;;6140728;23;19925;-78
2023/10/30 00:07:37;;;;;;;;;;;10.80;99.90;;;;;;6091667;23;19932;-78
2023/10/30 00:10:02;;;;;;;;;;;10.80;99.90;;;;;;6091987;23;19921;-78
2023/10/30 00:12:28;;;;;;;;;;;10.80;99.90;;;;;;6117362;23;19917;-78
2023/10/30 00:14:53;;;;;;;;;;;10.70;99.90;;;;;;6139960;23;20448;-79
2023/10/30 00:17:19;;;;;;;;;;;10.80;99.90;;;;;;6137647;23;19917;-79
2023/10/30 00:19:44;;;;;;;;;;;10.70;99.90;;;;;;6142137;23;19921;-80
2023/10/30 00:22:11;;;;;;;;;;;10.70;99.90;;;;;;6092948;23;19921;-80
2023/10/30 00:24:39;;;;;;;;;;;10.70;99.90;;;;;;6092580;23;19948;-81
2023/10/30 00:27:05;;;;;;;;;;;10.70;99.90;;;;;;6092602;23;20328;-81
2023/10/30 00:29:30;;;;;;;;;;;10.70;99.90;;;;;;6141526;23;19947;-83
2023/10/30 00:31:56;;;;;;;;;;;10.70;99.90;;;;;;6092535;23;19917;-79
2023/10/30 00:34:22;;;;;;;;;;;10.70;99.90;;;;;;6141944;23;20297;-79
2023/10/30 00:36:47;;;;;;;;;;;10.70;99.90;;;;;;6093722;23;20357;-79
2023/10/30 00:39:13;;;;;;;;;;;10.60;99.90;;;;;;6094496;23;19917;-79
2023/10/30 00:41:38;;;;;;;;;;;10.60;99.90;;;;;;6094634;23;19913;-80
2023/10/30 00:44:04;;;;;;;;;;;10.60;99.90;;;;;;6140680;23;19917;-80
2023/10/30 00:46:29;;;;;;;;;;;10.50;99.90;;;;;;6092982;23;19917;-80
2023/10/30 00:48:55;;;;;;;;;;;10.50;99.90;;;;;;6092777;23;19921;-80
2023/10/30 00:51:20;;;;;;;;;;;10.50;99.90;;;;;;6094477;23;20047;-79
2023/10/30 00:53:46;;;;;;;;;;;10.50;99.90;;;;;;6092476;23;20004;-80
2023/10/30 00:56:11;;;;;;;;;;;10.50;99.90;;;;;;6092783;23;19925;-80
2023/10/30 00:58:37;;;;;;;;;;;10.50;99.90;;;;;;6094653;23;20310;-80
2023/10/30 01:01:03;;;;;;;;;;;10.50;99.90;;;;;;6094581;23;19913;-80
2023/10/30 01:03:28;;;;;;;;;;;10.50;99.90;;;;;;6094370;23;19924;-80
2023/10/30 01:05:57;;;;;;;;;;;10.50;99.90;;;;;;6092559;23;19913;-81
2023/10/30 01:08:23;;;;;;;;;;;10.50;99.90;;;;;;6142570;23;19917;-82
2023/10/30 01:10:48;;;;;;;;;;;10.60;99.90;;;;;;6094937;23;19940;-81
2023/10/30 01:13:14;;;;;;;;;;;10.60;99.90;;;;;;6094758;23;20024;-79
2023/10/30 01:15:40;;;;;;;;;;;10.50;99.90;;;;;;6092805;23;20016;-79
2023/10/30 01:18:05;;;;;;;;;;;10.50;99.90;;;;;;6091546;23;19921;-80
2023/10/30 01:20:31;;;;;;;;;;;10.50;99.90;;;;;;6094735;23;19921;-79
2023/10/30 01:22:56;;;;;;;;;;;10.50;99.90;;;;;;6142257;23;19940;-79
2023/10/30 01:25:22;;;;;;;;;;;10.60;99.90;;;;;;6094753;23;20237;-78
2023/10/30 01:27:48;;;;;;;;;;;10.50;99.90;;;;;;6094568;23;19929;-78
2023/10/30 01:30:13;;;;;;;;;;;10.50;99.90;;;;;;6093826;23;19917;-79
2023/10/30 01:32:39;;;;;;;;;;;10.50;99.90;;;;;;6094475;23;19917;-81
2023/10/30 01:35:05;;;;;;;;;;;10.50;99.90;;;;;;6141261;23;19927;-80
2023/10/30 01:37:30;;;;;;;;;;;10.50;99.90;;;;;;6093544;23;20316;-79
2023/10/30 01:39:56;;;;;;;;;;;10.50;99.90;;;;;;6094616;23;20253;-79
2023/10/30 01:42:21;;;;;;;;;;;10.40;99.90;;;;;;6093320;23;19921;-79
2023/10/30 01:44:54;;;;;;;;;;;10.40;99.90;;;;;;6140357;23;20245;-80
2023/10/30 01:47:20;;;;;;;;;;;10.40;99.90;;;;;;6094230;23;19921;-79
2023/10/30 01:49:46;;;;;;;;;;;10.40;99.90;;;;;;6092058;23;19984;-80
2023/10/30 01:52:11;;;;;;;;;;;10.30;99.90;;;;;;6093784;23;20016;-79
2023/10/30 01:54:37;;;;;;;;;;;10.30;99.90;;;;;;6094713;23;19917;-79
2023/10/30 01:57:03;;;;;;;;;;;10.30;99.90;;;;;;6094804;23;20461;-79
2023/10/30 01:59:29;;;;;;;;;;;10.30;99.90;;;;;;6140494;23;19944;-79
2023/10/30 02:01:54;;;;;;;;;;;10.20;99.90;;;;;;6092175;23;20365;-78
2023/10/30 02:04:20;;;;;;;;;;;10.30;99.90;;;;;;6094514;23;19940;-77
2023/10/30 02:06:45;;;;;;;;;;;10.30;99.90;;;;;;6094456;23;19924;-77
2023/10/30 02:09:11;;;;;;;;;;;10.30;99.90;;;;;;6140918;23;20000;-78
2023/10/30 02:11:36;;;;;;;;;;;10.30;99.90;;;;;;6141014;23;19921;-78
2023/10/30 02:14:03;;;;;;;;;;;10.30;99.90;;;;;;6093125;23;19917;-78
2023/10/30 02:16:28;;;;;;;;;;;10.30;99.90;;;;;;6089335;23;19928;-78
2023/10/30 02:18:54;;;;;;;;;;;10.20;99.90;;;;;;6140626;23;19953;-78
2023/10/30 02:21:20;;;;;;;;;;;10.20;99.90;;;;;;6093125;23;19917;-79
2023/10/30 02:23:46;;;;;;;;;;;10.10;99.90;;;;;;6141282;23;20281;-79
2023/10/30 02:26:11;;;;;;;;;;;10.10;99.90;;;;;;6092040;23;19917;-78
2023/10/30 02:28:37;;;;;;;;;;;10.10;99.90;;;;;;6067240;23;19917;-79
2023/10/30 02:31:02;;;;;;;;;;;10.10;99.90;;;;;;6093388;23;19917;-79
2023/10/30 02:33:28;;;;;;;;;;;10.10;99.90;;;;;;6094304;23;19918;-79
2023/10/30 02:35:53;;;;;;;;;;;10.10;99.90;;;;;;6093546;23;19917;-79
2023/10/30 02:38:19;;;;;;;;;;;10.10;99.90;;;;;;6093804;23;19921;-79
2023/10/30 02:40:44;;;;;;;;;;;10.10;99.90;;;;;;6093268;23;20395;-79
2023/10/30 02:43:10;;;;;;;;;;;10.10;99.90;;;;;;6140601;23;20444;-79
2023/10/30 02:45:35;;;;;;;;;;;10.00;99.90;;;;;;6067828;23;19988;-79
2023/10/30 02:48:01;;;;;;;;;;;10.00;99.90;;;;;;6116194;23;20321;-79
2023/10/30 02:50:27;;;;;;;;;;;9.90;99.90;;;;;;6091894;23;19938;-79
2023/10/30 02:52:52;;;;;;;;;;;9.90;99.90;;;;;;6092701;23;19923;-78
2023/10/30 02:55:18;;;;;;;;;;;9.90;99.90;;;;;;6141001;23;20495;-79
2023/10/30 02:57:44;;;;;;;;;;;9.90;99.90;;;;;;6092959;23;19964;-79
2023/10/30 03:00:10;;;;;;;;;;;10.00;99.90;;;;;;6140235;23;19917;-80
2023/10/30 03:02:35;;;;;;;;;;;9.90;99.90;;;;;;6091860;23;19917;-80
2023/10/30 03:05:01;;;;;;;;;;;9.90;99.90;;;;;;6093854;23;20471;-80
2023/10/30 03:07:26;;;;;;;;;;;9.80;99.90;;;;;;6093328;23;19944;-80
2023/10/30 03:09:52;;;;;;;;;;;9.80;99.90;;;;;;6093283;23;20011;-80
2023/10/30 03:12:17;;;;;;;;;;;9.80;99.90;;;;;;6093532;23;19917;-80
2023/10/30 03:14:43;;;;;;;;;;;9.80;99.90;;;;;;6091521;23;19917;-80
2023/10/30 03:17:08;;;;;;;;;;;9.70;99.90;;;;;;6090393;23;20298;-80
2023/10/30 03:19:34;;;;;;;;;;;9.70;99.90;;;;;;6093587;23;20328;-80
2023/10/30 03:22:00;;;;;;;;;;;9.70;99.90;;;;;;6141067;23;19983;-80
2023/10/30 03:24:26;;;;;;;;;;;9.60;99.90;;;;;;6115833;23;19952;-79
2023/10/30 03:26:51;;;;;;;;;;;9.70;99.90;;;;;;6139347;23;19968;-79
2023/10/30 03:29:17;;;;;;;;;;;9.60;99.90;;;;;;6091415;23;19924;-80
2023/10/30 03:31:43;;;;;;;;;;;9.60;99.90;;;;;;6093595;23;19921;-80
2023/10/30 03:34:08;;;;;;;;;;;9.60;99.90;;;;;;6092308;23;19924;-79
2023/10/30 03:36:34;;;;;;;;;;;9.60;99.90;;;;;;6093948;23;19917;-80
2023/10/30 03:38:59;;;;;;;;;;;9.60;99.90;;;;;;6067070;23;19917;-80
2023/10/30 03:41:25;;;;;;;;;;;9.60;99.90;;;;;;6091616;23;20235;-80
2023/10/30 03:43:50;;;;;;;;;;;9.70;99.90;;;;;;6090788;23;20005;-80
2023/10/30 03:46:16;;;;;;;;;;;9.60;99.90;;;;;;6091597;23;19917;-80
2023/10/30 03:48:41;;;;;;;;;;;9.70;99.90;;;;;;6140498;23;19974;-80
2023/10/30 03:51:07;;;;;;;;;;;9.70;99.90;;;;;;6140024;23;19921;-80
2023/10/30 03:53:32;;;;;;;;;;;9.70;99.90;;;;;;6090817;23;19970;-79
2023/10/30 03:55:58;;;;;;;;;;;9.70;99.90;;;;;;6093165;23;19921;-80
2023/10/30 03:58:25;;;;;;;;;;;9.70;99.90;;;;;;6093476;23;20637;-79
2023/10/30 04:00:50;;;;;;;;;;;9.70;99.90;;;;;;6139732;23;19921;-80
2023/10/30 04:03:16;;;;;;;;;;;9.70;99.90;;;;;;6092758;23;19921;-80
2023/10/30 04:05:42;;;;;;;;;;;9.80;99.90;;;;;;6092871;23;19917;-81
2023/10/30 04:08:08;;;;;;;;;;;9.80;99.90;;;;;;6140342;23;19998;-80
2023/10/30 04:10:33;;;;;;;;;;;9.80;99.90;;;;;;6139300;23;20204;-81
2023/10/30 04:12:59;;;;;;;;;;;9.90;99.90;;;;;;6092609;23;20342;-81
2023/10/30 04:15:24;;;;;;;;;;;10.00;99.90;;;;;;6092691;23;19969;-82
2023/10/30 04:17:50;;;;;;;;;;;9.90;99.90;;;;;;6137443;23;19917;-80
2023/10/30 04:20:15;;;;;;;;;;;10.00;99.90;;;;;;6140320;23;19921;-79
2023/10/30 04:22:41;;;;;;;;;;;10.00;99.90;;;;;;6091255;23;20375;-80
2023/10/30 04:25:07;;;;;;;;;;;10.10;99.90;;;;;;6067691;23;19917;-80
2023/10/30 04:27:35;;;;;;;;;;;10.10;99.90;;;;;;6116102;23;19917;-80
2023/10/30 04:30:02;;;;;;;;;;;10.10;99.90;;;;;;6091238;23;19921;-80
2023/10/30 04:32:27;;;;;;;;;;;10.10;99.90;;;;;;6139856;23;19932;-81
2023/10/30 04:34:53;;;;;;;;;;;10.00;99.90;;;;;;6139837;23;19917;-81
2023/10/30 04:37:20;;;;;;;;;;;10.10;99.90;;;;;;6093347;23;19963;-81
2023/10/30 04:39:46;;;;;;;;;;;10.10;99.90;;;;;;6139984;23;19949;-81
2023/10/30 04:42:11;;;;;;;;;;;10.00;99.90;;;;;;6092039;23;19940;-79
2023/10/30 04:44:37;;;;;;;;;;;10.10;99.90;;;;;;6114914;23;19948;-80
2023/10/30 04:47:03;;;;;;;;;;;10.10;99.90;;;;;;6091566;23;20008;-80
2023/10/30 04:49:34;;;;;;;;;;;10.00;99.90;;;;;;6115303;23;19961;-80
2023/10/30 04:52:00;;;;;;;;;;;10.00;99.90;;;;;;6142463;23;20278;-80
2023/10/30 04:54:25;;;;;;;;;;;10.00;99.90;;;;;;6116983;23;19924;-80
2023/10/30 04:56:51;;;;;;;;;;;10.00;99.90;;;;;;6094867;23;20245;-80
2023/10/30 04:59:16;;;;;;;;;;;10.00;99.90;;;;;;6094508;23;19917;-80
2023/10/30 05:01:42;;;;;;;;;;;10.00;99.90;;;;;;6095109;23;19917;-80
2023/10/30 05:04:08;;;;;;;;;;;10.00;99.90;;;;;;6094226;23;19936;-80
2023/10/30 05:06:34;;;;;;;;;;;10.00;99.90;;;;;;6092312;23;20033;-81
2023/10/30 05:08:59;;;;;;;;;;;10.00;99.90;;;;;;6092627;23;19959;-81
2023/10/30 05:11:25;;;;;;;;;;;10.00;99.90;;;;;;6094853;23;20292;-80
2023/10/30 05:13:50;;;;;;;;;;;10.00;99.90;;;;;;6116982;23;19995;-81
2023/10/30 05:16:16;;;;;;;;;;;10.00;99.90;;;;;;6093013;23;20028;-81
2023/10/30 05:18:41;;;;;;;;;;;9.90;99.90;;;;;;6092111;23;19917;-81
2023/10/30 05:21:07;;;;;;;;;;;9.80;99.90;;;;;;6095001;23;19913;-81
2023/10/30 05:23:32;;;;;;;;;;;9.80;99.90;;;;;;6094238;23;19921;-82
2023/10/30 05:25:58;;;;;;;;;;;9.70;99.90;;;;;;6092259;23;20239;-81
2023/10/30 05:28:23;;;;;;;;;;;9.70;99.90;;;;;;6116973;23;19952;-81
2023/10/30 05:30:49;;;;;;;;;;;9.70;99.90;;;;;;6094450;23;19952;-82
2023/10/30 05:33:14;;;;;;;;;;;9.70;99.90;;;;;;6092568;23;20420;-81
2023/10/30 05:35:40;;;;;;;;;;;9.70;99.90;;;;;;6094429;23;20598;-80
2023/10/30 05:38:05;;;;;;;;;;;9.60;99.90;;;;;;6093926;23;19997;-81
2023/10/30 05:40:31;;;;;;;;;;;9.60;99.90;;;;;;6094227;23;19983;-80
2023/10/30 05:42:57;;;;;;;;;;;9.60;99.90;;;;;;6117363;23;19984;-80
2023/10/30 05:45:22;;;;;;;;;;;9.60;99.90;;;;;;6093509;23;19921;-80
2023/10/30 05:47:48;;;;;;;;;;;9.60;99.90;;;;;;6091986;23;19924;-80
2023/10/30 05:50:13;;;;;;;;;;;9.60;99.90;;;;;;6141345;23;19917;-81
2023/10/30 05:52:39;;;;;;;;;;;9.60;99.90;;;;;;6094565;23;19917;-81
2023/10/30 05:55:04;;;;;;;;;;;9.50;99.90;;;;;;6092856;23;20379;-81
2023/10/30 05:57:31;;;;;;;;;;;9.60;99.90;;;;;;6141339;23;20515;-80
2023/10/30 05:59:56;;;;;;;;;;;9.60;99.90;;;;;;6093444;23;19917;-80
2023/10/30 06:02:22;;;;;;;;;;;9.50;99.90;;;;;;6093931;23;20019;-79
2023/10/30 06:04:47;;;;;;;;;;;9.50;99.90;;;;;;6093985;23;19921;-81
2023/10/30 06:07:13;;;;;;;;;;;9.50;99.90;;;;;;6140722;23;19928;-79
2023/10/30 06:09:38;;;;;;;;;;;9.50;99.90;;;;;;6116719;23;19923;-80
2023/10/30 06:12:04;;;;;;;;;;;9.50;99.90;;;;;;6092839;23;19917;-80
2023/10/30 06:14:30;;;;;;;;;;;9.50;99.90;;;;;;6095297;23;19965;-84
2023/10/30 06:16:55;;;;;;;;;;;9.50;99.90;;;;;;6141643;23;19921;-87
2023/10/30 06:19:21;;;;;;;;;;;9.40;99.90;;;;;;6143034;23;19976;-82
2023/10/30 06:21:47;;;;;;;;;;;9.40;99.90;;;;;;6123067;23;19917;-81
2023/10/30 06:24:13;;;;;;;;;;;9.50;99.90;;;;;;6096486;23;19924;-87
2023/10/30 06:26:41;;;;;;;;;;;9.50;99.90;;;;;;6096800;23;20285;-84
2023/10/30 06:29:07;;;;;;;;;;;9.50;99.90;;;;;;6091666;23;19999;-86
2023/10/30 06:31:33;;;;;;;;;;;9.50;99.90;;;;;;6144485;23;20014;-87
2023/10/30 06:33:58;;;;;;;;;;;9.50;99.90;;;;;;6096951;23;19952;-89
2023/10/30 06:36:24;;;;;;;;;;;9.50;99.90;;;;;;6094339;23;20604;-88
2023/10/30 06:38:49;;;;;;;;;;;9.50;99.90;;;;;;6143936;23;20254;-90
2023/10/30 06:41:15;;;;;;;;;;;9.50;99.90;;;;;;6096381;23;19917;-88
2023/10/30 06:43:40;;;;;;;;;;;9.60;99.90;;;;;;6143439;23;19932;-87
2023/10/30 06:46:08;;;;;;;;;;;9.60;99.90;;;;;;6142925;23;19968;-86
2023/10/30 06:48:33;;;;;;;;;;;9.60;99.90;;;;;;6093730;23;19917;-87
2023/10/30 06:50:59;;;;;;;;;;;9.60;99.90;;;;;;6098434;23;19973;-82
2023/10/30 06:53:25;;;;;;;;;;;9.60;99.90;;;;;;6091086;23;20258;-83
2023/10/30 06:55:50;;;;;;;;;;;9.60;99.90;;;;;;6092584;23;19921;-82
2023/10/30 06:58:16;;;;;;;;;;;9.70;99.90;;;;;;6094140;23;20534;-82
2023/10/30 07:00:42;;;;;;;;;;;9.70;99.90;;;;;;6092449;23;19925;-83
2023/10/30 07:03:08;;;;;;;;;;;9.80;99.90;;;;;;6141070;23;19964;-81
2023/10/30 07:05:34;;;;;;;;;;;9.80;99.90;;;;;;6068589;23;19917;-82
2023/10/30 07:08:00;;;;;;;;;;;9.90;99.90;;;;;;6093443;23;19972;-82
2023/10/30 07:10:25;;;;;;;;;;;9.90;99.90;;;;;;6093629;23;19921;-85
2023/10/30 07:12:51;;;;;;;;;;;10.00;99.90;;;;;;6116973;23;19922;-82
2023/10/30 07:15:17;;;;;;;;;;;10.00;99.90;;;;;;6093804;23;19924;-79
2023/10/30 07:17:43;;;;;;;;;;;10.10;99.90;;;;;;6090148;23;19913;-82
2023/10/30 07:20:08;;;;;;;;;;;10.10;99.90;;;;;;6092637;23;19917;-83
2023/10/30 07:22:34;;;;;;;;;;;10.10;99.90;;;;;;6141592;23;19960;-82
2023/10/30 07:25:00;;;;;;;;;;;10.20;99.90;;;;;;6092932;23;19917;-83
2023/10/30 07:27:25;;;;;;;;;;;10.20;99.90;;;;;;6093570;23;19984;-84
2023/10/30 07:29:51;;;;;;;;;;;10.20;99.90;;;;;;6091093;23;19925;-83
2023/10/30 07:32:17;;;;;;;;;;;10.30;99.90;;;;;;6089888;23;19984;-84
2023/10/30 07:34:43;;;;;;;;;;;10.30;99.90;;;;;;6139926;23;20511;-84
2023/10/30 07:37:09;;;;;;;;;;;10.40;99.90;;;;;;6091013;23;19980;-85
2023/10/30 07:39:34;;;;;;;;;;;10.40;99.90;;;;;;6140543;23;19917;-81
2023/10/30 07:42:00;;;;;;;;;;;10.50;99.90;;;;;;6094691;23;19920;-85
2023/10/30 07:44:26;;;;;;;;;;;10.50;99.90;;;;;;6138031;23;19921;-86
2023/10/30 07:46:51;;;;;;;;;;;10.60;99.90;;;;;;6092875;23;20009;-86
2023/10/30 07:49:17;;;;;;;;;;;10.70;99.90;;;;;;6092503;23;19916;-86
2023/10/30 07:51:43;;;;;;;;;;;10.70;99.90;;;;;;6094348;23;20031;-87
2023/10/30 07:54:08;;;;;;;;;;;10.80;99.90;;;;;;6118965;23;19913;-84
2023/10/30 07:56:34;;;;;;;;;;;10.90;99.90;;;;;;6113839;23;19949;-86
2023/10/30 07:58:59;;;;;;;;;;;10.90;99.90;;;;;;6111061;23;19917;-86
2023/10/30 08:01:25;;;;;;;;;;;10.90;99.90;;;;;;6096191;23;19920;-86
2023/10/30 08:03:50;;;;;;;;;;;11.00;99.90;;;;;;6095022;23;19959;-86
2023/10/30 08:06:16;;;;;;;;;;;11.00;99.90;;;;;;6100990;23;19921;-81
2023/10/30 08:08:42;;;;;;;;;;;11.00;99.90;;;;;;6119674;23;19928;-88
2023/10/30 08:11:09;;;;;;;;;;;11.00;99.90;;;;;;6105298;23;19917;-88
2023/10/30 08:13:35;;;;;;;;;;;11.00;99.90;;;;;;6092123;23;19913;-83
2023/10/30 08:16:00;;;;;;;;;;;11.00;99.90;;;;;;6090897;23;19932;-74
2023/10/30 08:18:26;;;;;;;;;;;11.10;99.90;;;;;;6135810;23;19921;-88
2023/10/30 08:20:51;;;;;;;;;;;11.10;99.90;;;;;;6090053;23;19917;-87
2023/10/30 08:23:17;;;;;;;;;;;11.10;99.90;;;;;;6092918;23;19921;-87
2023/10/30 08:25:43;;;;;;;;;;;11.10;99.90;;;;;;6116870;23;19924;-87
2023/10/30 08:28:08;;;;;;;;;;;11.20;99.90;;;;;;6091579;23;19913;-86
2023/10/30 08:30:34;;;;;;;;;;;11.30;99.90;;;;;;6139145;23;20281;-88
2023/10/30 08:33:03;;;;;;;;;;;11.30;99.90;;;;;;6092396;23;19967;-89
2023/10/30 08:35:29;;;;;;;;;;;11.40;99.90;;;;;;6093741;23;19980;-90
2023/10/30 08:37:57;;;;;;;;;;;11.50;99.90;;;;;;6093871;23;19921;-88
2023/10/30 08:40:23;;;;;;;;;;;11.50;99.90;;;;;;6092163;23;19984;-91
2023/10/30 08:42:49;;;;;;;;;;;11.50;99.90;;;;;;6095468;23;19944;-90
2023/10/30 08:45:14;;;;;;;;;;;11.50;99.90;;;;;;6092348;23;19988;-91
2023/10/30 08:47:40;;;;;;;;;;;11.50;99.90;;;;;;6093888;23;19940;-88
2023/10/30 08:50:06;;;;;;;;;;;11.60;99.90;;;;;;6091696;23;19948;-87
2023/10/30 08:52:32;;;;;;;;;;;11.50;99.90;;;;;;6142987;23;19928;-90
2023/10/30 08:54:57;;;;;;;;;;;11.50;99.90;;;;;;6094881;23;19996;-90
2023/10/30 08:57:23;;;;;;;;;;;11.50;99.90;;;;;;6142292;23;19988;-89
2023/10/30 08:59:48;;;;;;;;;;;11.60;99.90;;;;;;6094855;23;19949;-88
2023/10/30 09:02:14;;;;;;;;;;;11.60;99.90;;;;;;6093650;23;19921;-91
2023/10/30 09:04:40;;;;;;;;;;;11.70;99.90;;;;;;6096590;23;19996;-89
2023/10/30 09:07:06;;;;;;;;;;;11.80;99.90;;;;;;6144181;23;19921;-92
2023/10/30 09:09:32;;;;;;;;;;;11.90;99.90;;;;;;6094389;23;19928;-90
2023/10/30 09:11:58;;;;;;;;;;;12.00;99.90;;;;;;6095424;23;19993;-88
2023/10/30 09:14:23;;;;;;;;;;;12.10;99.90;;;;;;6094766;23;19992;-91
2023/10/30 09:16:49;;;;;;;;;;;12.10;99.90;;;;;;6140289;23;19967;-92
2023/10/30 09:19:14;;;;;;;;;;;12.20;99.90;;;;;;6093587;23;19925;-91
2023/10/30 09:21:40;;;;;;;;;;;12.20;99.90;;;;;;6119640;23;19971;-91
2023/10/30 09:24:06;;;;;;;;;;;12.20;99.90;;;;;;6092939;23;19974;-88
2023/10/30 09:26:31;;;;;;;;;;;12.30;99.90;;;;;;6094884;23;19921;-89
2023/10/30 09:28:57;;;;;;;;;;;12.30;99.90;;;;;;6093923;23;19921;-87
2023/10/30 09:31:23;;;;;;;;;;;12.40;99.90;;;;;;6092608;23;20350;-88
2023/10/30 09:33:48;;;;;;;;;;;12.40;99.90;;;;;;6142387;23;19995;-88
2023/10/30 09:36:14;;;;;;;;;;;12.40;99.90;;;;;;6092285;23;19956;-88
2023/10/30 09:38:41;;;;;;;;;;;12.40;99.90;;;;;;6094640;23;19972;-88
2023/10/30 09:41:08;;;;;;;;;;;12.50;99.90;;;;;;6093993;23;19921;-88
2023/10/30 09:43:34;;;;;;;;;;;12.40;99.90;;;;;;6093867;23;20258;-88
2023/10/30 09:46:00;;;;;;;;;;;12.40;99.90;;;;;;6094410;23;19917;-88
2023/10/30 09:48:28;;;;;;;;;;;12.50;99.90;;;;;;6095446;23;19968;-85
2023/10/30 09:50:54;;;;;;;;;;;12.50;99.90;;;;;;6093350;23;19941;-87
2023/10/30 09:53:20;;;;;;;;;;;12.50;99.90;;;;;;6092110;23;19921;-90
2023/10/30 09:55:46;;;;;;;;;;;12.50;99.90;;;;;;6140165;23;20187;-91
2023/10/30 09:58:12;;;;;;;;;;;12.50;99.90;;;;;;6093621;23;19921;-89
2023/10/30 10:00:38;;;;;;;;;;;12.60;99.90;;;;;;6140748;23;19921;-91
2023/10/30 10:03:04;;;;;;;;;;;12.60;99.90;;;;;;6142976;23;20000;-90
2023/10/30 10:05:30;;;;;;;;;;;12.70;99.90;;;;;;6150176;23;19917;-91
2023/10/30 10:07:56;;;;;;;;;;;12.70;99.90;;;;;;6142865;23;19936;-90
2023/10/30 10:10:21;;;;;;;;;;;12.60;99.90;;;;;;6095005;23;19928;-82
2023/10/30 10:12:53;;;;;;;;;;;12.70;99.90;;;;;;6115781;23;20236;-79
2023/10/30 10:15:20;;;;;;;;;;;12.70;99.90;;;;;;6110264;23;19921;-86
2023/10/30 10:17:46;;;;;;;;;;;12.80;99.90;;;;;;6115878;23;19918;-92
2023/10/30 10:20:11;;;;;;;;;;;12.80;99.90;;;;;;6122256;23;19928;-90
2023/10/30 10:22:37;;;;;;;;;;;12.80;99.90;;;;;;6144027;23;19924;-90
2023/10/30 10:25:04;;;;;;;;;;;12.90;99.90;;;;;;6103779;23;20387;-94
2023/10/30 10:27:30;;;;;;;;;;;12.90;99.90;;;;;;6169117;23;19905;-89
2023/10/30 10:29:56;;;;;;;;;;;12.80;99.90;;;;;;6113655;23;19918;-88
2023/10/30 10:32:26;;;;;;;;;;;12.70;99.90;;;;;;6109458;23;19921;-89
2023/10/30 10:35:05;;;;;;;;;;;12.70;99.90;;;;;;6152820;23;19931;-86
2023/10/30 10:37:32;;;;;;;;;;;12.70;99.90;;;;;;6103749;23;19925;-89
2023/10/30 10:39:57;;;;;;;;;;;12.70;99.90;;;;;;6098178;23;19936;-90
2023/10/30 10:42:24;;;;;;;;;;;12.70;99.90;;;;;;6098547;23;19917;-86
2023/10/30 10:44:51;;;;;;;;;;;12.80;99.90;;;;;;6098353;23;20326;-91
2023/10/30 10:47:17;;;;;;;;;;;12.80;99.90;;;;;;6149626;23;20000;-89
2023/10/30 10:49:43;;;;;;;;;;;12.90;99.90;;;;;;6103819;23;19917;-93
2023/10/30 10:52:09;;;;;;;;;;;12.90;99.90;;;;;;6155221;23;19960;-93
2023/10/30 10:54:46;;;;;;;;;;;13.00;99.90;;;;;;6096032;23;19928;-90
2023/10/30 10:57:15;;;;;;;;;;;13.10;99.90;;;;;;6094850;23;20265;-85
2023/10/30 10:59:42;;;;;;;;;;;13.10;99.90;;;;;;6137318;23;19917;-86
2023/10/30 11:02:09;;;;;;;;;;;13.20;99.90;;;;;;6091058;23;19917;-85
2023/10/30 11:04:34;;;;;;;;;;;13.20;99.90;;;;;;6138764;23;19921;-86
2023/10/30 11:07:03;;;;;;;;;;;13.10;99.90;;;;;;6138422;23;19917;-85
2023/10/30 11:09:32;;;;;;;;;;;13.20;99.90;;;;;;6090116;23;19917;-86
2023/10/30 11:12:10;;;;;;;;;;;13.10;99.90;;;;;;6089256;23;19949;-86
2023/10/30 11:14:48;;;;;;;;;;;13.20;99.90;;;;;;6088291;23;19913;-88
2023/10/30 11:17:14;;;;;;;;;;;13.30;99.90;;;;;;6112421;23;20234;-88
2023/10/30 11:19:41;;;;;;;;;;;13.30;99.90;;;;;;6090536;23;20524;-88
2023/10/30 11:22:06;;;;;;;;;;;13.30;99.90;;;;;;6066258;23;19921;-87
2023/10/30 11:24:42;;;;;;;;;;;13.40;99.90;;;;;;6091205;23;19917;-84
2023/10/30 11:27:26;;;;;;;;;;;13.40;99.90;;;;;;6092139;23;19917;-87
2023/10/30 11:29:55;;;;;;;;;;;13.40;99.90;;;;;;6091565;23;20475;-87
2023/10/30 11:32:21;;;;;;;;;;;13.40;99.90;;;;;;6090940;23;20200;-87
2023/10/30 11:34:46;;;;;;;;;;;13.40;99.90;;;;;;6141485;23;20387;-85
2023/10/30 11:37:13;;;;;;;;;;;13.50;99.90;;;;;;6089446;23;19917;-83
2023/10/30 11:39:40;;;;;;;;;;;13.50;99.90;;;;;;6139995;23;19960;-86
2023/10/30 11:42:40;;;;;;;;;;;13.50;99.90;;;;;;6140149;23;20322;-85
2023/10/30 11:45:15;;;;;;;;;;;13.40;99.90;;;;;;6043769;23;20003;-86
2023/10/30 11:48:01;;;;;;;;;;;13.40;99.90;;;;;;6090328;23;19961;-86
2023/10/30 11:50:27;;;;;;;;;;;13.40;99.90;;;;;;6114623;23;20296;-85
2023/10/30 11:52:53;;;;;;;;;;;13.40;99.90;;;;;;6140808;23;19996;-86
2023/10/30 11:55:22;;;;;;;;;;;13.40;99.90;;;;;;6090765;23;19957;-86
2023/10/30 11:57:48;;;;;;;;;;;13.50;99.90;;;;;;6069901;23;19996;-86
2023/10/30 12:00:14;;;;;;;;;;;13.50;99.90;;;;;;6091298;23;20500;-86
2023/10/30 12:02:41;;;;;;;;;;;13.50;99.90;;;;;;6069789;23;19988;-85
2023/10/30 12:05:07;;;;;;;;;;;13.50;99.90;;;;;;6095021;23;19921;-86
2023/10/30 12:07:33;;;;;;;;;;;13.50;99.90;;;;;;6094662;23;19924;-87
2023/10/30 12:10:03;;;;;;;;;;;13.50;99.90;;;;;;6095718;23;19917;-86
2023/10/30 12:12:32;;;;;;;;;;;13.50;99.90;;;;;;6094331;23;20246;-85
2023/10/30 12:14:58;;;;;;;;;;;13.50;99.90;;;;;;6095985;23;19984;-86
2023/10/30 12:17:24;;;;;;;;;;;13.60;99.90;;;;;;6092203;23;19992;-87
2023/10/30 12:19:49;;;;;;;;;;;13.60;99.90;;;;;;6146141;23;19956;-87
2023/10/30 12:22:15;;;;;;;;;;;13.60;99.90;;;;;;6097460;23;19917;-87
2023/10/30 12:24:42;;;;;;;;;;;13.60;99.90;;;;;;6143754;23;19917;-87
2023/10/30 12:27:08;;;;;;;;;;;13.60;99.90;;;;;;6142132;23;19949;-80
2023/10/30 12:29:34;;;;;;;;;;;13.50;99.90;;;;;;6098670;23;19912;-75
2023/10/30 12:32:01;;;;;;;;;;;13.50;99.90;;;;;;6093993;23;20317;-82
2023/10/30 12:34:26;;;;;;;;;;;13.50;99.90;;;;;;6142038;23;19971;-79
2023/10/30 12:36:52;;;;;;;;;;;13.40;99.90;;;;;;6143068;23;20312;-81
2023/10/30 12:39:20;;;;;;;;;;;13.40;99.90;;;;;;6093153;23;19921;-80
2023/10/30 12:41:47;;;;;;;;;;;13.40;99.90;;;;;;6102437;23;19929;-92
2023/10/30 12:44:19;;;;;;;;;;;13.40;99.90;;;;;;6116770;23;19931;-85
2023/10/30 12:46:45;;;;;;;;;;;13.30;99.90;;;;;;6154835;23;20165;-84
2023/10/30 12:49:11;;;;;;;;;;;13.30;99.90;;;;;;6099911;23;19992;-83
2023/10/30 12:51:36;;;;;;;;;;;13.20;99.90;;;;;;6141328;23;19924;-86
2023/10/30 12:54:02;;;;;;;;;;;13.20;99.90;;;;;;6139339;23;19921;-88
2023/10/30 12:56:27;;;;;;;;;;;13.20;99.90;;;;;;6091764;23;20508;-86
2023/10/30 12:58:53;;;;;;;;;;;13.20;99.90;;;;;;6091799;23;19928;-88
2023/10/30 13:01:19;;;;;;;;;;;13.20;99.90;;;;;;6091746;23;19927;-84
2023/10/30 13:03:44;;;;;;;;;;;13.20;99.90;;;;;;6141319;23;19948;-84
2023/10/30 13:06:10;;;;;;;;;;;13.20;99.90;;;;;;6115043;23;20048;-84
2023/10/30 13:08:35;;;;;;;;;;;13.20;99.90;;;;;;6091647;23;19968;-84
2023/10/30 13:11:01;;;;;;;;;;;13.20;99.90;;;;;;6094605;23;19921;-85
2023/10/30 13:13:26;;;;;;;;;;;13.30;99.90;;;;;;6141172;23;19917;-84
2023/10/30 13:15:52;;;;;;;;;;;13.30;99.90;;;;;;6092821;23;19921;-85
2023/10/30 13:18:17;;;;;;;;;;;13.30;99.90;;;;;;6112852;23;19924;-84
2023/10/30 13:20:43;;;;;;;;;;;13.30;99.90;;;;;;6093447;23;19923;-87
2023/10/30 13:23:08;;;;;;;;;;;13.30;99.90;;;;;;6091828;23;19937;-85
2023/10/30 13:25:34;;;;;;;;;;;13.30;99.90;;;;;;6091732;23;19918;-85
2023/10/30 13:28:00;;;;;;;;;;;13.30;99.90;;;;;;6091993;23;19921;-85
2023/10/30 13:30:25;;;;;;;;;;;13.30;99.90;;;;;;6085927;23;20045;-85
2023/10/30 13:32:52;;;;;;;;;;;13.30;99.90;;;;;;6088584;23;19967;-86
2023/10/30 13:35:18;;;;;;;;;;;13.30;99.90;;;;;;6090152;23;20003;-85
2023/10/30 13:37:44;;;;;;;;;;;13.30;99.90;;;;;;6094721;23;19921;-93
2023/10/30 13:40:11;;;;;;;;;;;13.30;99.90;;;;;;6117798;23;19937;-88
2023/10/30 13:42:37;;;;;;;;;;;13.20;99.90;;;;;;6141023;23;19921;-90
2023/10/30 13:45:03;;;;;;;;;;;13.20;99.90;;;;;;6141516;23;20305;-92
2023/10/30 13:47:28;;;;;;;;;;;13.20;99.90;;;;;;6092868;23;19917;-90
2023/10/30 13:49:54;;;;;;;;;;;13.10;99.90;;;;;;6117581;23;20326;-82
2023/10/30 13:52:19;;;;;;;;;;;13.10;99.90;;;;;;6093447;23;19921;-91
2023/10/30 13:54:46;;;;;;;;;;;13.10;99.90;;;;;;6069464;23;20024;-92
2023/10/30 13:57:13;;;;;;;;;;;13.20;99.90;;;;;;6091090;23;19992;-81
2023/10/30 13:59:40;;;;;;;;;;;13.10;99.90;;;;;;6086356;23;19931;-89
2023/10/30 14:02:06;;;;;;;;;;;13.20;99.90;;;;;;6092183;23;20060;-86
2023/10/30 14:04:31;;;;;;;;;;;13.20;99.90;;;;;;6068776;23;20386;-81
2023/10/30 14:06:57;;;;;;;;;;;13.10;99.90;;;;;;6092428;23;19945;-88
2023/10/30 14:09:22;;;;;;;;;;;13.10;99.90;;;;;;6092837;23;19988;-86
2023/10/30 14:11:48;;;;;;;;;;;13.20;99.90;;;;;;6067201;23;19924;-88
2023/10/30 14:14:13;;;;;;;;;;;13.10;99.90;;;;;;6089975;23;19917;-82